sensor_id;sensor_type;location;lat;lon;timestamp;P1;durP1;ratioP1;P2;durP2;ratioP2
12212;SDS011;6169;44.158;22.788;2023-05-20T00:03:30;12.30;;;9.23;;
12212;SDS011;6169;44.158;22.788;2023-05-20T00:08:32;16.17;;;9.18;;
12212;SDS011;6169;44.158;22.788;2023-05-20T00:13:34;28.27;;;11.23;;
12212;SDS011;6169;44.158;22.788;2023-05-20T00:18:38;14.63;;;10.15;;
12212;SDS011;6169;44.158;22.788;2023-05-20T00:23:40;12.93;;;10.00;;
12212;SDS011;6169;44.158;22.788;2023-05-20T00:28:42;13.60;;;9.45;;
12212;SDS011;6169;44.158;22.788;2023-05-20T00:33:46;13.48;;;9.63;;
12212;SDS011;6169;44.158;22.788;2023-05-20T00:38:48;15.10;;;10.60;;
12212;SDS011;6169;44.158;22.788;2023-05-20T00:43:52;17.00;;;10.27;;
12212;SDS011;6169;44.158;22.788;2023-05-20T00:48:55;13.43;;;10.02;;
12212;SDS011;6169;44.158;22.788;2023-05-20T00:53:58;13.63;;;9.40;;
12212;SDS011;6169;44.158;22.788;2023-05-20T00:59:01;11.65;;;9.18;;
12212;SDS011;6169;44.158;22.788;2023-05-20T01:04:05;13.98;;;8.70;;
12212;SDS011;6169;44.158;22.788;2023-05-20T01:09:07;11.52;;;8.90;;
12212;SDS011;6169;44.158;22.788;2023-05-20T01:14:09;12.90;;;9.07;;
12212;SDS011;6169;44.158;22.788;2023-05-20T01:19:17;11.43;;;8.27;;
12212;SDS011;6169;44.158;22.788;2023-05-20T01:24:29;12.32;;;9.57;;
12212;SDS011;6169;44.158;22.788;2023-05-20T01:29:31;21.05;;;10.93;;
12212;SDS011;6169;44.158;22.788;2023-05-20T01:34:34;17.00;;;10.85;;
12212;SDS011;6169;44.158;22.788;2023-05-20T01:39:39;13.32;;;9.68;;
12212;SDS011;6169;44.158;22.788;2023-05-20T01:44:43;18.05;;;11.05;;
12212;SDS011;6169;44.158;22.788;2023-05-20T01:49:45;16.35;;;11.68;;
12212;SDS011;6169;44.158;22.788;2023-05-20T01:54:50;18.73;;;12.13;;
12212;SDS011;6169;44.158;22.788;2023-05-20T01:59:52;15.00;;;11.32;;
12212;SDS011;6169;44.158;22.788;2023-05-20T02:04:54;15.45;;;10.50;;
12212;SDS011;6169;44.158;22.788;2023-05-20T02:09:58;16.52;;;10.65;;
12212;SDS011;6169;44.158;22.788;2023-05-20T02:15:00;16.38;;;11.88;;
12212;SDS011;6169;44.158;22.788;2023-05-20T02:20:03;13.20;;;9.48;;
12212;SDS011;6169;44.158;22.788;2023-05-20T02:25:08;14.30;;;10.27;;
12212;SDS011;6169;44.158;22.788;2023-05-20T02:30:11;16.73;;;9.73;;
12212;SDS011;6169;44.158;22.788;2023-05-20T02:35:13;13.38;;;9.73;;
12212;SDS011;6169;44.158;22.788;2023-05-20T02:40:17;14.32;;;10.60;;
12212;SDS011;6169;44.158;22.788;2023-05-20T02:45:19;16.80;;;9.27;;
12212;SDS011;6169;44.158;22.788;2023-05-20T02:50:21;13.98;;;9.80;;
12212;SDS011;6169;44.158;22.788;2023-05-20T02:55:25;16.98;;;9.63;;
12212;SDS011;6169;44.158;22.788;2023-05-20T03:00:28;13.25;;;9.88;;
12212;SDS011;6169;44.158;22.788;2023-05-20T03:05:30;14.93;;;10.70;;
12212;SDS011;6169;44.158;22.788;2023-05-20T03:10:38;14.48;;;9.23;;
12212;SDS011;6169;44.158;22.788;2023-05-20T03:15:41;13.10;;;9.25;;
12212;SDS011;6169;44.158;22.788;2023-05-20T03:20:44;15.15;;;9.85;;
12212;SDS011;6169;44.158;22.788;2023-05-20T03:25:48;12.68;;;9.07;;
12212;SDS011;6169;44.158;22.788;2023-05-20T03:30:51;15.02;;;8.75;;
12212;SDS011;6169;44.158;22.788;2023-05-20T03:35:53;13.50;;;9.70;;
12212;SDS011;6169;44.158;22.788;2023-05-20T03:40:57;11.18;;;8.57;;
12212;SDS011;6169;44.158;22.788;2023-05-20T03:45:59;14.13;;;10.02;;
12212;SDS011;6169;44.158;22.788;2023-05-20T03:51:01;14.25;;;9.88;;
12212;SDS011;6169;44.158;22.788;2023-05-20T03:56:05;13.60;;;9.30;;
12212;SDS011;6169;44.158;22.788;2023-05-20T04:01:07;13.82;;;9.75;;
12212;SDS011;6169;44.158;22.788;2023-05-20T04:06:12;12.90;;;9.25;;
12212;SDS011;6169;44.158;22.788;2023-05-20T04:11:16;12.40;;;10.15;;
12212;SDS011;6169;44.158;22.788;2023-05-20T04:16:18;14.13;;;10.20;;
12212;SDS011;6169;44.158;22.788;2023-05-20T04:21:21;13.23;;;9.70;;
12212;SDS011;6169;44.158;22.788;2023-05-20T04:26:24;12.13;;;9.13;;
12212;SDS011;6169;44.158;22.788;2023-05-20T04:31:26;19.13;;;9.65;;
12212;SDS011;6169;44.158;22.788;2023-05-20T04:36:29;14.05;;;9.60;;
12212;SDS011;6169;44.158;22.788;2023-05-20T04:41:33;12.93;;;9.13;;
12212;SDS011;6169;44.158;22.788;2023-05-20T04:46:35;12.98;;;9.20;;
12212;SDS011;6169;44.158;22.788;2023-05-20T04:51:39;16.63;;;11.60;;
12212;SDS011;6169;44.158;22.788;2023-05-20T04:56:42;14.40;;;10.25;;
12212;SDS011;6169;44.158;22.788;2023-05-20T05:01:46;13.35;;;8.45;;
12212;SDS011;6169;44.158;22.788;2023-05-20T05:06:48;23.27;;;10.48;;
12212;SDS011;6169;44.158;22.788;2023-05-20T05:11:52;16.63;;;9.60;;
12212;SDS011;6169;44.158;22.788;2023-05-20T05:16:54;14.13;;;9.20;;
12212;SDS011;6169;44.158;22.788;2023-05-20T05:21:57;14.82;;;10.52;;
12212;SDS011;6169;44.158;22.788;2023-05-20T05:27:01;14.40;;;10.30;;
12212;SDS011;6169;44.158;22.788;2023-05-20T05:32:04;12.15;;;9.77;;
12212;SDS011;6169;44.158;22.788;2023-05-20T05:37:06;13.13;;;9.32;;
12212;SDS011;6169;44.158;22.788;2023-05-20T05:42:10;11.60;;;8.85;;
12212;SDS011;6169;44.158;22.788;2023-05-20T05:47:12;15.75;;;10.35;;
12212;SDS011;6169;44.158;22.788;2023-05-20T05:52:14;14.20;;;8.88;;
12212;SDS011;6169;44.158;22.788;2023-05-20T05:57:18;14.75;;;11.00;;
12212;SDS011;6169;44.158;22.788;2023-05-20T06:02:21;13.02;;;9.20;;
12212;SDS011;6169;44.158;22.788;2023-05-20T06:07:23;12.57;;;9.25;;
12212;SDS011;6169;44.158;22.788;2023-05-20T06:12:27;11.20;;;8.80;;
12212;SDS011;6169;44.158;22.788;2023-05-20T06:17:29;13.95;;;9.82;;
12212;SDS011;6169;44.158;22.788;2023-05-20T06:22:31;12.55;;;9.05;;
12212;SDS011;6169;44.158;22.788;2023-05-20T06:27:35;10.65;;;9.55;;
12212;SDS011;6169;44.158;22.788;2023-05-20T06:32:37;12.25;;;8.40;;
12212;SDS011;6169;44.158;22.788;2023-05-20T06:37:40;18.50;;;11.05;;
12212;SDS011;6169;44.158;22.788;2023-05-20T06:42:43;12.88;;;9.30;;
12212;SDS011;6169;44.158;22.788;2023-05-20T06:47:46;16.20;;;10.25;;
12212;SDS011;6169;44.158;22.788;2023-05-20T06:52:49;17.23;;;12.20;;
12212;SDS011;6169;44.158;22.788;2023-05-20T06:57:52;14.38;;;10.68;;
12212;SDS011;6169;44.158;22.788;2023-05-20T07:02:55;12.90;;;9.32;;
12212;SDS011;6169;44.158;22.788;2023-05-20T07:07:57;12.15;;;8.68;;
12212;SDS011;6169;44.158;22.788;2023-05-20T07:13:01;12.93;;;8.52;;
12212;SDS011;6169;44.158;22.788;2023-05-20T07:18:03;11.68;;;9.15;;
12212;SDS011;6169;44.158;22.788;2023-05-20T07:23:05;12.52;;;8.75;;
12212;SDS011;6169;44.158;22.788;2023-05-20T07:28:10;15.35;;;8.73;;
12212;SDS011;6169;44.158;22.788;2023-05-20T07:33:12;20.08;;;14.00;;
12212;SDS011;6169;44.158;22.788;2023-05-20T07:38:14;11.13;;;8.32;;
12212;SDS011;6169;44.158;22.788;2023-05-20T07:43:18;9.50;;;7.93;;
12212;SDS011;6169;44.158;22.788;2023-05-20T07:48:20;10.32;;;7.15;;
12212;SDS011;6169;44.158;22.788;2023-05-20T07:53:22;13.00;;;7.65;;
12212;SDS011;6169;44.158;22.788;2023-05-20T07:58:26;10.15;;;8.55;;
12212;SDS011;6169;44.158;22.788;2023-05-20T08:03:29;9.40;;;7.50;;
12212;SDS011;6169;44.158;22.788;2023-05-20T08:08:31;13.50;;;9.98;;
12212;SDS011;6169;44.158;22.788;2023-05-20T08:13:35;10.15;;;8.23;;
12212;SDS011;6169;44.158;22.788;2023-05-20T08:18:37;13.32;;;8.02;;
12212;SDS011;6169;44.158;22.788;2023-05-20T08:23:40;13.35;;;8.13;;
12212;SDS011;6169;44.158;22.788;2023-05-20T08:28:43;11.57;;;7.90;;
12212;SDS011;6169;44.158;22.788;2023-05-20T08:33:46;10.18;;;8.77;;
12212;SDS011;6169;44.158;22.788;2023-05-20T08:38:48;12.00;;;7.45;;
12212;SDS011;6169;44.158;22.788;2023-05-20T08:43:51;30.35;;;22.85;;
12212;SDS011;6169;44.158;22.788;2023-05-20T08:48:54;14.70;;;9.48;;
12212;SDS011;6169;44.158;22.788;2023-05-20T08:53:58;22.52;;;13.75;;
12212;SDS011;6169;44.158;22.788;2023-05-20T08:59:02;8.10;;;6.03;;
12212;SDS011;6169;44.158;22.788;2023-05-20T09:04:04;10.35;;;6.85;;
12212;SDS011;6169;44.158;22.788;2023-05-20T09:09:07;7.00;;;6.25;;
12212;SDS011;6169;44.158;22.788;2023-05-20T09:14:12;8.57;;;6.70;;
12212;SDS011;6169;44.158;22.788;2023-05-20T09:19:15;12.20;;;7.90;;
12212;SDS011;6169;44.158;22.788;2023-05-20T09:24:19;11.95;;;7.45;;
12212;SDS011;6169;44.158;22.788;2023-05-20T09:29:25;12.45;;;7.22;;
12212;SDS011;6169;44.158;22.788;2023-05-20T09:34:27;9.75;;;5.90;;
12212;SDS011;6169;44.158;22.788;2023-05-20T09:39:30;12.00;;;8.32;;
12212;SDS011;6169;44.158;22.788;2023-05-20T09:44:40;8.32;;;6.68;;
12212;SDS011;6169;44.158;22.788;2023-05-20T09:49:45;7.97;;;6.18;;
12212;SDS011;6169;44.158;22.788;2023-05-20T09:54:48;8.35;;;6.97;;
12212;SDS011;6169;44.158;22.788;2023-05-20T09:59:53;9.18;;;5.22;;
12212;SDS011;6169;44.158;22.788;2023-05-20T10:04:55;6.72;;;5.30;;
12212;SDS011;6169;44.158;22.788;2023-05-20T10:10:03;7.97;;;6.10;;
12212;SDS011;6169;44.158;22.788;2023-05-20T10:15:17;9.30;;;6.07;;
12212;SDS011;6169;44.158;22.788;2023-05-20T10:20:27;9.32;;;6.25;;
12212;SDS011;6169;44.158;22.788;2023-05-20T10:25:30;9.05;;;6.47;;
12212;SDS011;6169;44.158;22.788;2023-05-20T10:30:34;10.95;;;7.82;;
12212;SDS011;6169;44.158;22.788;2023-05-20T10:35:45;10.50;;;5.75;;
12212;SDS011;6169;44.158;22.788;2023-05-20T10:40:48;9.98;;;6.63;;
12212;SDS011;6169;44.158;22.788;2023-05-20T10:45:52;9.57;;;6.40;;
12212;SDS011;6169;44.158;22.788;2023-05-20T10:50:57;11.23;;;5.47;;
12212;SDS011;6169;44.158;22.788;2023-05-20T10:56:03;12.30;;;7.03;;
12212;SDS011;6169;44.158;22.788;2023-05-20T11:01:07;7.60;;;6.82;;
12212;SDS011;6169;44.158;22.788;2023-05-20T11:06:11;6.32;;;5.55;;
12212;SDS011;6169;44.158;22.788;2023-05-20T11:11:13;8.00;;;6.30;;
12212;SDS011;6169;44.158;22.788;2023-05-20T11:16:18;6.40;;;5.65;;
12212;SDS011;6169;44.158;22.788;2023-05-20T11:21:21;8.05;;;6.38;;
12212;SDS011;6169;44.158;22.788;2023-05-20T11:26:23;7.70;;;5.78;;
12212;SDS011;6169;44.158;22.788;2023-05-20T11:31:28;12.32;;;6.35;;
12212;SDS011;6169;44.158;22.788;2023-05-20T11:36:31;9.82;;;6.05;;
12212;SDS011;6169;44.158;22.788;2023-05-20T11:41:34;7.40;;;6.50;;
12212;SDS011;6169;44.158;22.788;2023-05-20T11:46:41;10.20;;;6.20;;
12212;SDS011;6169;44.158;22.788;2023-05-20T11:51:44;6.20;;;5.53;;
12212;SDS011;6169;44.158;22.788;2023-05-20T11:56:46;7.55;;;5.13;;
12212;SDS011;6169;44.158;22.788;2023-05-20T12:01:50;5.68;;;5.05;;
12212;SDS011;6169;44.158;22.788;2023-05-20T12:06:52;9.95;;;5.88;;
12212;SDS011;6169;44.158;22.788;2023-05-20T12:11:55;10.23;;;5.50;;
12212;SDS011;6169;44.158;22.788;2023-05-20T12:16:59;6.65;;;5.35;;
12212;SDS011;6169;44.158;22.788;2023-05-20T12:22:02;11.00;;;6.15;;
12212;SDS011;6169;44.158;22.788;2023-05-20T12:27:04;8.10;;;5.13;;
12212;SDS011;6169;44.158;22.788;2023-05-20T12:32:08;10.25;;;5.38;;
12212;SDS011;6169;44.158;22.788;2023-05-20T12:37:10;6.97;;;5.07;;
12212;SDS011;6169;44.158;22.788;2023-05-20T12:42:12;7.95;;;5.25;;
12212;SDS011;6169;44.158;22.788;2023-05-20T12:47:16;7.38;;;4.63;;
12212;SDS011;6169;44.158;22.788;2023-05-20T12:52:18;8.63;;;6.40;;
12212;SDS011;6169;44.158;22.788;2023-05-20T12:57:21;11.13;;;5.68;;
12212;SDS011;6169;44.158;22.788;2023-05-20T13:02:24;7.13;;;5.78;;
12212;SDS011;6169;44.158;22.788;2023-05-20T13:07:27;6.70;;;5.72;;
12212;SDS011;6169;44.158;22.788;2023-05-20T13:12:29;7.53;;;5.20;;
12212;SDS011;6169;44.158;22.788;2023-05-20T13:17:33;9.25;;;5.22;;
12212;SDS011;6169;44.158;22.788;2023-05-20T13:22:35;8.05;;;5.47;;
12212;SDS011;6169;44.158;22.788;2023-05-20T13:27:37;7.75;;;5.50;;
12212;SDS011;6169;44.158;22.788;2023-05-20T13:32:41;11.82;;;5.45;;
12212;SDS011;6169;44.158;22.788;2023-05-20T13:37:43;6.78;;;4.95;;
12212;SDS011;6169;44.158;22.788;2023-05-20T13:42:45;6.50;;;5.80;;
12212;SDS011;6169;44.158;22.788;2023-05-20T13:47:49;9.15;;;5.90;;
12212;SDS011;6169;44.158;22.788;2023-05-20T13:52:51;7.75;;;5.65;;
12212;SDS011;6169;44.158;22.788;2023-05-20T13:57:53;10.52;;;5.30;;
12212;SDS011;6169;44.158;22.788;2023-05-20T14:02:57;6.75;;;6.03;;
12212;SDS011;6169;44.158;22.788;2023-05-20T14:08:00;11.05;;;6.25;;
12212;SDS011;6169;44.158;22.788;2023-05-20T14:13:02;5.97;;;5.18;;
12212;SDS011;6169;44.158;22.788;2023-05-20T14:18:06;5.82;;;4.78;;
12212;SDS011;6169;44.158;22.788;2023-05-20T14:23:08;7.05;;;5.10;;
12212;SDS011;6169;44.158;22.788;2023-05-20T14:28:10;7.95;;;5.57;;
12212;SDS011;6169;44.158;22.788;2023-05-20T14:33:14;8.20;;;5.50;;
12212;SDS011;6169;44.158;22.788;2023-05-20T14:38:16;8.98;;;5.45;;
12212;SDS011;6169;44.158;22.788;2023-05-20T14:43:20;7.40;;;5.65;;
12212;SDS011;6169;44.158;22.788;2023-05-20T14:48:24;9.63;;;6.05;;
12212;SDS011;6169;44.158;22.788;2023-05-20T14:53:26;10.98;;;5.25;;
12212;SDS011;6169;44.158;22.788;2023-05-20T14:58:28;6.28;;;5.45;;
12212;SDS011;6169;44.158;22.788;2023-05-20T15:03:32;11.20;;;7.47;;
12212;SDS011;6169;44.158;22.788;2023-05-20T15:08:34;13.23;;;9.07;;
12212;SDS011;6169;44.158;22.788;2023-05-20T15:13:36;14.20;;;6.00;;
12212;SDS011;6169;44.158;22.788;2023-05-20T15:18:41;15.63;;;7.38;;
12212;SDS011;6169;44.158;22.788;2023-05-20T15:23:43;12.05;;;5.50;;
12212;SDS011;6169;44.158;22.788;2023-05-20T15:28:45;8.50;;;5.53;;
12212;SDS011;6169;44.158;22.788;2023-05-20T15:33:49;8.48;;;6.47;;
12212;SDS011;6169;44.158;22.788;2023-05-20T15:38:51;9.55;;;6.05;;
12212;SDS011;6169;44.158;22.788;2023-05-20T15:43:53;8.10;;;4.97;;
12212;SDS011;6169;44.158;22.788;2023-05-20T15:48:57;8.52;;;4.70;;
12212;SDS011;6169;44.158;22.788;2023-05-20T15:53:59;7.10;;;5.70;;
12212;SDS011;6169;44.158;22.788;2023-05-20T15:59:01;7.03;;;5.35;;
12212;SDS011;6169;44.158;22.788;2023-05-20T16:04:05;6.57;;;5.32;;
12212;SDS011;6169;44.158;22.788;2023-05-20T16:09:07;7.95;;;4.85;;
12212;SDS011;6169;44.158;22.788;2023-05-20T16:14:09;7.40;;;5.10;;
12212;SDS011;6169;44.158;22.788;2023-05-20T16:19:13;6.60;;;5.15;;
12212;SDS011;6169;44.158;22.788;2023-05-20T16:24:15;7.03;;;4.97;;
12212;SDS011;6169;44.158;22.788;2023-05-20T16:29:18;5.75;;;4.68;;
12212;SDS011;6169;44.158;22.788;2023-05-20T16:34:22;7.97;;;4.40;;
12212;SDS011;6169;44.158;22.788;2023-05-20T16:39:24;9.18;;;5.22;;
12212;SDS011;6169;44.158;22.788;2023-05-20T16:44:26;4.65;;;3.95;;
12212;SDS011;6169;44.158;22.788;2023-05-20T16:49:30;6.85;;;3.42;;
12212;SDS011;6169;44.158;22.788;2023-05-20T16:54:32;5.43;;;4.75;;
12212;SDS011;6169;44.158;22.788;2023-05-20T16:59:36;6.57;;;3.58;;
12212;SDS011;6169;44.158;22.788;2023-05-20T17:04:39;4.93;;;4.43;;
12212;SDS011;6169;44.158;22.788;2023-05-20T17:09:42;6.93;;;4.63;;
12212;SDS011;6169;44.158;22.788;2023-05-20T17:14:44;5.03;;;4.35;;
12212;SDS011;6169;44.158;22.788;2023-05-20T17:19:47;5.60;;;4.35;;
12212;SDS011;6169;44.158;22.788;2023-05-20T17:24:50;11.02;;;5.10;;
12212;SDS011;6169;44.158;22.788;2023-05-20T17:29:52;6.35;;;4.72;;
12212;SDS011;6169;44.158;22.788;2023-05-20T17:34:56;8.13;;;4.70;;
12212;SDS011;6169;44.158;22.788;2023-05-20T17:39:58;5.68;;;4.75;;
12212;SDS011;6169;44.158;22.788;2023-05-20T17:45:00;7.55;;;4.85;;
12212;SDS011;6169;44.158;22.788;2023-05-20T17:50:04;6.03;;;5.22;;
12212;SDS011;6169;44.158;22.788;2023-05-20T17:55:09;6.72;;;4.78;;
12212;SDS011;6169;44.158;22.788;2023-05-20T18:00:12;7.90;;;4.80;;
12212;SDS011;6169;44.158;22.788;2023-05-20T18:05:16;7.13;;;4.60;;
12212;SDS011;6169;44.158;22.788;2023-05-20T18:10:18;5.82;;;5.07;;
12212;SDS011;6169;44.158;22.788;2023-05-20T18:15:20;5.45;;;4.32;;
12212;SDS011;6169;44.158;22.788;2023-05-20T18:20:24;5.15;;;4.65;;
12212;SDS011;6169;44.158;22.788;2023-05-20T18:25:27;6.93;;;4.85;;
12212;SDS011;6169;44.158;22.788;2023-05-20T18:30:29;7.18;;;4.78;;
12212;SDS011;6169;44.158;22.788;2023-05-20T18:35:33;6.50;;;4.85;;
12212;SDS011;6169;44.158;22.788;2023-05-20T18:40:36;6.90;;;5.28;;
12212;SDS011;6169;44.158;22.788;2023-05-20T18:45:38;5.88;;;5.13;;
12212;SDS011;6169;44.158;22.788;2023-05-20T18:50:42;8.85;;;5.60;;
12212;SDS011;6169;44.158;22.788;2023-05-20T18:55:46;7.00;;;5.15;;
12212;SDS011;6169;44.158;22.788;2023-05-20T19:00:49;6.70;;;4.53;;
12212;SDS011;6169;44.158;22.788;2023-05-20T19:05:54;7.57;;;4.50;;
12212;SDS011;6169;44.158;22.788;2023-05-20T19:10:58;6.72;;;5.05;;
12212;SDS011;6169;44.158;22.788;2023-05-20T19:16:01;7.28;;;4.68;;
12212;SDS011;6169;44.158;22.788;2023-05-20T19:21:07;6.82;;;4.53;;
12212;SDS011;6169;44.158;22.788;2023-05-20T19:26:10;8.07;;;5.03;;
12212;SDS011;6169;44.158;22.788;2023-05-20T19:31:12;5.65;;;4.45;;
12212;SDS011;6169;44.158;22.788;2023-05-20T19:36:21;6.82;;;4.38;;
12212;SDS011;6169;44.158;22.788;2023-05-20T19:41:23;7.07;;;5.53;;
12212;SDS011;6169;44.158;22.788;2023-05-20T19:46:26;7.32;;;6.25;;
12212;SDS011;6169;44.158;22.788;2023-05-20T19:51:30;8.02;;;7.00;;
12212;SDS011;6169;44.158;22.788;2023-05-20T19:56:33;10.95;;;5.80;;
12212;SDS011;6169;44.158;22.788;2023-05-20T20:01:35;8.27;;;5.90;;
12212;SDS011;6169;44.158;22.788;2023-05-20T20:06:39;10.10;;;5.88;;
12212;SDS011;6169;44.158;22.788;2023-05-20T20:11:42;9.18;;;5.85;;
12212;SDS011;6169;44.158;22.788;2023-05-20T20:16:44;9.38;;;5.88;;
12212;SDS011;6169;44.158;22.788;2023-05-20T20:21:49;6.90;;;5.95;;
12212;SDS011;6169;44.158;22.788;2023-05-20T20:26:52;8.10;;;6.13;;
12212;SDS011;6169;44.158;22.788;2023-05-20T20:31:55;10.57;;;5.78;;
12212;SDS011;6169;44.158;22.788;2023-05-20T20:37:00;11.45;;;6.55;;
12212;SDS011;6169;44.158;22.788;2023-05-20T20:42:03;10.02;;;6.32;;
12212;SDS011;6169;44.158;22.788;2023-05-20T20:47:05;9.02;;;6.15;;
12212;SDS011;6169;44.158;22.788;2023-05-20T20:52:10;15.68;;;8.82;;
12212;SDS011;6169;44.158;22.788;2023-05-20T20:57:12;12.32;;;7.93;;
12212;SDS011;6169;44.158;22.788;2023-05-20T21:02:14;9.45;;;7.22;;
12212;SDS011;6169;44.158;22.788;2023-05-20T21:07:18;7.53;;;5.55;;
12212;SDS011;6169;44.158;22.788;2023-05-20T21:12:21;10.55;;;6.47;;
12212;SDS011;6169;44.158;22.788;2023-05-20T21:17:23;9.15;;;6.38;;
12212;SDS011;6169;44.158;22.788;2023-05-20T21:22:27;10.32;;;7.03;;
12212;SDS011;6169;44.158;22.788;2023-05-20T21:27:29;9.55;;;6.10;;
12212;SDS011;6169;44.158;22.788;2023-05-20T21:32:31;7.03;;;5.88;;
12212;SDS011;6169;44.158;22.788;2023-05-20T21:37:35;9.50;;;6.57;;
12212;SDS011;6169;44.158;22.788;2023-05-20T21:42:37;9.65;;;6.07;;
12212;SDS011;6169;44.158;22.788;2023-05-20T21:47:39;8.73;;;5.80;;
12212;SDS011;6169;44.158;22.788;2023-05-20T21:52:43;13.15;;;6.70;;
12212;SDS011;6169;44.158;22.788;2023-05-20T21:57:45;8.80;;;6.47;;
12212;SDS011;6169;44.158;22.788;2023-05-20T22:02:47;7.97;;;6.07;;
12212;SDS011;6169;44.158;22.788;2023-05-20T22:07:52;8.18;;;6.55;;
12212;SDS011;6169;44.158;22.788;2023-05-20T22:12:54;8.10;;;6.70;;
12212;SDS011;6169;44.158;22.788;2023-05-20T22:17:57;7.00;;;6.25;;
12212;SDS011;6169;44.158;22.788;2023-05-20T22:23:00;10.45;;;7.28;;
12212;SDS011;6169;44.158;22.788;2023-05-20T22:28:03;9.40;;;6.70;;
12212;SDS011;6169;44.158;22.788;2023-05-20T22:33:06;8.25;;;6.78;;
12212;SDS011;6169;44.158;22.788;2023-05-20T22:38:09;8.85;;;6.28;;
12212;SDS011;6169;44.158;22.788;2023-05-20T22:43:11;8.30;;;6.82;;
12212;SDS011;6169;44.158;22.788;2023-05-20T22:48:15;10.27;;;6.63;;
12212;SDS011;6169;44.158;22.788;2023-05-20T22:53:19;9.80;;;6.38;;
12212;SDS011;6169;44.158;22.788;2023-05-20T22:58:22;7.72;;;5.65;;
12212;SDS011;6169;44.158;22.788;2023-05-20T23:03:24;12.43;;;7.40;;
12212;SDS011;6169;44.158;22.788;2023-05-20T23:08:27;11.68;;;6.68;;
12212;SDS011;6169;44.158;22.788;2023-05-20T23:13:30;11.05;;;6.18;;
12212;SDS011;6169;44.158;22.788;2023-05-20T23:18:33;15.57;;;8.15;;
12212;SDS011;6169;44.158;22.788;2023-05-20T23:23:37;7.55;;;6.47;;
12212;SDS011;6169;44.158;22.788;2023-05-20T23:28:39;11.60;;;7.47;;
12212;SDS011;6169;44.158;22.788;2023-05-20T23:33:41;8.73;;;7.00;;
12212;SDS011;6169;44.158;22.788;2023-05-20T23:38:45;8.52;;;6.85;;
12212;SDS011;6169;44.158;22.788;2023-05-20T23:43:47;9.95;;;8.00;;
12212;SDS011;6169;44.158;22.788;2023-05-20T23:48:49;7.47;;;6.30;;
12212;SDS011;6169;44.158;22.788;2023-05-20T23:53:54;9.80;;;7.18;;
12212;SDS011;6169;44.158;22.788;2023-05-20T23:58:56;8.23;;;6.78;;
